Time;durP1;ratioP1;P1;durP2;ratioP2;P2;SDS_P1;SDS_P2;PMS_P1;PMS_P2;Temp;Humidity;BMP_temperature;BMP_pressure;BME280_temperature;BME280_humidity;BME280_pressure;Samples;Min_cycle;Max_cycle;Signal;HPM_P1;HPM_P2
2022/05/06 00:02:15;;;;;;;3.77;3.47;;;13.10;71.00;;;;;;945170;149;27401;-73
2022/05/06 00:04:45;;;;;;;4.10;3.80;;;13.10;71.20;;;;;;947795;149;27355;-73
2022/05/06 00:07:12;;;;;;;4.47;3.87;;;13.10;71.20;;;;;;946431;149;27453;-73
2022/05/06 00:09:38;;;;;;;3.70;3.40;;;13.10;71.20;;;;;;946826;149;27307;-74
2022/05/06 00:12:04;;;;;;;4.03;3.63;;;13.00;71.20;;;;;;947421;149;27333;-74
2022/05/06 00:14:31;;;;;;;4.70;3.77;;;13.00;70.30;;;;;;949125;149;27685;-73
2022/05/06 00:16:58;;;;;;;5.03;3.90;;;13.00;71.40;;;;;;947322;149;27433;-73
2022/05/06 00:19:24;;;;;;;4.23;3.83;;;12.90;71.50;;;;;;944907;148;27363;-73
2022/05/06 00:21:51;;;;;;;4.80;4.20;;;12.90;71.60;;;;;;946696;149;27334;-74
2022/05/06 00:24:17;;;;;;;4.33;3.53;;;12.90;71.80;;;;;;946133;149;27619;-73
2022/05/06 00:26:44;;;;;;;5.17;3.47;;;12.80;71.80;;;;;;948105;149;27408;-73
2022/05/06 00:29:11;;;;;;;5.93;3.87;;;12.80;71.80;;;;;;946721;149;27447;-74
2022/05/06 00:31:37;;;;;;;3.93;3.60;;;12.80;71.90;;;;;;945772;149;27417;-73
2022/05/06 00:34:04;;;;;;;3.80;3.50;;;12.80;72.10;;;;;;947579;149;28342;-74
2022/05/06 00:36:30;;;;;;;4.50;4.10;;;12.80;72.10;;;;;;954325;149;27363;-73
2022/05/06 00:38:57;;;;;;;4.07;3.77;;;12.80;72.10;;;;;;955974;148;27256;-74
2022/05/06 00:41:24;;;;;;;4.07;3.70;;;12.70;72.10;;;;;;954983;149;27279;-73
2022/05/06 00:43:50;;;;;;;4.53;3.10;;;12.70;72.10;;;;;;953312;149;27433;-73
2022/05/06 00:46:17;;;;;;;5.33;3.73;;;12.70;72.10;;;;;;955534;148;27765;-74
2022/05/06 00:48:43;;;;;;;4.27;3.60;;;12.70;72.20;;;;;;955769;149;27381;-74
2022/05/06 00:51:10;;;;;;;3.97;3.63;;;12.70;72.30;;;;;;954164;149;27275;-74
2022/05/06 00:53:36;;;;;;;3.97;3.60;;;12.70;72.50;;;;;;953837;149;27336;-74
2022/05/06 00:56:03;;;;;;;4.20;3.80;;;12.60;72.60;;;;;;955210;149;27810;-74
2022/05/06 00:58:30;;;;;;;6.37;4.07;;;12.60;72.60;;;;;;953749;149;27363;-73
2022/05/06 01:00:56;;;;;;;4.80;3.80;;;12.60;72.60;;;;;;956486;149;27307;-73
2022/05/06 01:03:23;;;;;;;4.20;3.80;;;12.60;72.60;;;;;;954862;149;27418;-73
2022/05/06 01:05:50;;;;;;;4.30;3.90;;;12.60;72.80;;;;;;953396;149;27311;-73
2022/05/06 01:08:19;;;;;;;3.80;3.50;;;12.60;72.80;;;;;;955523;149;27346;-73
2022/05/06 01:10:43;;;;;;;4.27;3.93;;;12.60;72.80;;;;;;953889;149;27460;-73
2022/05/06 01:13:09;;;;;;;4.03;3.33;;;12.50;72.80;;;;;;954243;149;27280;-73
2022/05/06 01:15:36;;;;;;;3.73;3.43;;;12.50;72.80;;;;;;952352;148;27366;-74
2022/05/06 01:18:02;;;;;;;4.20;3.33;;;12.50;72.80;;;;;;955220;149;27319;-73
2022/05/06 01:20:29;;;;;;;3.47;3.17;;;12.50;72.90;;;;;;953597;149;27694;-73
2022/05/06 01:22:58;;;;;;;3.83;3.43;;;12.50;72.80;;;;;;958311;149;27416;-73
2022/05/06 01:25:22;;;;;;;5.93;3.40;;;12.50;72.90;;;;;;953973;149;27350;-73
2022/05/06 01:28:01;;;;;;;3.77;3.13;;;12.50;72.20;;;;;;952682;148;27271;-73
2022/05/06 01:30:36;;;;;;;4.00;3.27;;;12.40;72.90;;;;;;953596;149;27379;-73
2022/05/06 01:33:00;;;;;;;4.93;3.10;;;12.40;72.90;;;;;;953784;149;27283;-74
2022/05/06 01:35:26;;;;;;;4.50;3.00;;;12.40;72.90;;;;;;956182;149;27475;-73
2022/05/06 01:37:53;;;;;;;3.40;3.10;;;12.40;73.00;;;;;;957181;149;27330;-73
2022/05/06 01:40:19;;;;;;;3.77;3.07;;;12.30;72.90;;;;;;957731;149;27232;-74
2022/05/06 01:42:46;;;;;;;3.47;3.10;;;12.30;73.00;;;;;;957229;149;27336;-73
2022/05/06 01:45:13;;;;;;;4.10;3.33;;;12.20;72.90;;;;;;956496;149;27316;-73
2022/05/06 01:47:39;;;;;;;4.10;3.30;;;12.20;73.00;;;;;;955222;147;27329;-73
2022/05/06 01:50:06;;;;;;;3.70;3.40;;;12.20;73.00;;;;;;954924;149;27363;-74
2022/05/06 01:52:32;;;;;;;3.10;2.80;;;12.10;72.90;;;;;;955743;149;27356;-73
2022/05/06 01:54:59;;;;;;;3.10;2.90;;;12.10;73.00;;;;;;951938;149;27418;-73
2022/05/06 01:57:25;;;;;;;3.60;2.83;;;12.10;73.10;;;;;;956197;149;27346;-73
2022/05/06 01:59:52;;;;;;;3.83;3.20;;;12.00;73.20;;;;;;955115;149;27361;-73
2022/05/06 02:02:19;;;;;;;3.43;2.90;;;12.00;73.20;;;;;;955631;149;27360;-74
2022/05/06 02:07:30;;;;;;;3.70;3.40;;;11.90;73.30;;;;;;954266;149;27296;-74
2022/05/06 02:09:57;;;;;;;4.43;2.60;;;11.90;73.20;;;;;;953086;149;27993;-73
2022/05/06 02:12:23;;;;;;;3.23;2.83;;;11.80;73.30;;;;;;955608;149;27315;-73
2022/05/06 02:14:50;;;;;;;4.00;2.90;;;11.80;73.40;;;;;;955046;149;27307;-73
2022/05/06 02:17:17;;;;;;;3.27;2.67;;;11.80;73.60;;;;;;955360;149;27756;-73
2022/05/06 02:19:43;;;;;;;3.90;3.10;;;11.70;73.50;;;;;;955432;149;27468;-73
2022/05/06 02:22:10;;;;;;;6.00;3.43;;;11.70;73.60;;;;;;955120;149;27292;-73
2022/05/06 02:24:36;;;;;;;3.40;3.17;;;11.70;74.10;;;;;;955439;149;27332;-73
2022/05/06 02:27:03;;;;;;;4.33;3.00;;;11.60;73.70;;;;;;953825;149;27793;-73
2022/05/06 02:29:29;;;;;;;4.40;2.67;;;11.60;73.80;;;;;;955630;149;27462;-73
2022/05/06 02:34:42;;;;;;;3.60;3.17;;;11.50;73.90;;;;;;954906;149;27422;-73
2022/05/06 02:37:08;;;;;;;3.20;2.90;;;11.50;73.90;;;;;;949462;147;27325;-73
2022/05/06 02:39:34;;;;;;;5.30;2.97;;;11.50;73.90;;;;;;944777;149;27351;-73
2022/05/06 02:42:01;;;;;;;4.50;3.00;;;11.50;74.10;;;;;;946288;149;27312;-73
2022/05/06 02:44:27;;;;;;;3.47;2.97;;;11.40;74.10;;;;;;947845;149;27352;-73
2022/05/06 02:46:54;;;;;;;2.90;2.70;;;11.40;74.10;;;;;;945810;149;27417;-73
2022/05/06 02:49:20;;;;;;;3.27;2.87;;;11.40;74.20;;;;;;947108;149;27319;-73
2022/05/06 02:51:47;;;;;;;3.30;3.00;;;11.40;74.30;;;;;;948925;149;27449;-73
2022/05/06 02:54:15;;;;;;;3.90;2.80;;;11.40;74.20;;;;;;948549;149;27413;-73
2022/05/06 02:56:40;;;;;;;3.27;2.97;;;11.40;74.40;;;;;;949676;149;27345;-73
2022/05/06 02:59:07;;;;;;;3.30;2.97;;;11.40;74.60;;;;;;948222;149;27398;-73
2022/05/06 03:01:33;;;;;;;3.67;2.60;;;11.30;74.70;;;;;;948000;148;27263;-73
2022/05/06 03:04:00;;;;;;;2.97;2.73;;;11.30;74.80;;;;;;948523;149;27422;-73
2022/05/06 03:06:26;;;;;;;3.37;3.03;;;11.30;74.90;;;;;;948098;149;27428;-73
2022/05/06 03:08:53;;;;;;;4.10;3.07;;;11.30;74.90;;;;;;947529;149;27416;-73
2022/05/06 03:11:19;;;;;;;3.67;2.80;;;11.30;75.00;;;;;;945311;149;27792;-73
2022/05/06 03:13:46;;;;;;;4.50;2.90;;;11.20;75.00;;;;;;944218;150;27269;-73
2022/05/06 03:16:13;;;;;;;3.13;2.93;;;11.20;75.20;;;;;;948182;149;27327;-73
2022/05/06 03:18:39;;;;;;;4.83;3.17;;;11.20;75.30;;;;;;947746;150;27295;-73
2022/05/06 03:21:06;;;;;;;4.03;3.40;;;11.10;75.20;;;;;;946072;149;27360;-73
2022/05/06 03:23:33;;;;;;;3.57;3.20;;;11.10;75.20;;;;;;948744;149;27332;-73
2022/05/06 03:25:59;;;;;;;3.37;3.07;;;11.20;75.50;;;;;;949318;149;27300;-73
2022/05/06 03:28:26;;;;;;;3.70;3.30;;;11.10;75.50;;;;;;945531;149;27398;-73
2022/05/06 03:30:52;;;;;;;3.33;3.03;;;11.10;75.70;;;;;;948633;149;27442;-73
2022/05/06 03:33:19;;;;;;;3.33;3.07;;;11.10;75.80;;;;;;946967;149;27289;-73
2022/05/06 03:35:45;;;;;;;3.80;3.50;;;11.10;76.00;;;;;;948265;149;27364;-73
2022/05/06 03:38:13;;;;;;;4.33;3.00;;;11.10;76.00;;;;;;939522;149;27357;-73
2022/05/06 03:40:39;;;;;;;4.17;3.20;;;11.00;76.00;;;;;;935698;152;27309;-74
2022/05/06 03:43:05;;;;;;;4.17;3.27;;;11.00;76.10;;;;;;936462;152;27318;-73
2022/05/06 03:45:32;;;;;;;4.90;3.40;;;11.00;75.30;;;;;;937335;152;27452;-73
2022/05/06 03:47:58;;;;;;;4.43;3.40;;;10.90;76.20;;;;;;935347;150;27358;-73
2022/05/06 03:53:10;;;;;;;3.37;3.03;;;10.90;76.40;;;;;;935610;152;27342;-73
2022/05/06 03:55:37;;;;;;;4.93;3.30;;;10.90;76.40;;;;;;936398;150;27470;-73
2022/05/06 03:58:03;;;;;;;4.27;3.83;;;10.80;76.50;;;;;;935220;152;27322;-73
2022/05/06 04:00:29;;;;;;;4.30;3.90;;;10.80;76.70;;;;;;935812;152;27354;-74
2022/05/06 04:02:56;;;;;;;4.50;3.57;;;10.80;76.80;;;;;;936869;149;27435;-74
2022/05/06 04:05:23;;;;;;;3.70;3.40;;;10.70;76.70;;;;;;937269;150;27980;-74
2022/05/06 04:07:49;;;;;;;3.93;3.40;;;10.70;76.90;;;;;;936442;150;27322;-74
2022/05/06 04:10:16;;;;;;;4.13;3.53;;;10.70;77.10;;;;;;938172;152;27708;-73
2022/05/06 04:12:42;;;;;;;5.07;3.43;;;10.70;77.30;;;;;;936480;152;27298;-74
2022/05/06 04:15:09;;;;;;;3.63;3.33;;;10.70;77.30;;;;;;936773;150;27364;-74
2022/05/06 04:17:35;;;;;;;3.50;3.20;;;10.60;77.50;;;;;;937247;149;27363;-74
2022/05/06 04:25:31;;;;;;;3.67;3.37;;;10.70;77.90;;;;;;936814;150;27338;-74
2022/05/06 04:27:58;;;;;;;3.73;3.43;;;10.70;78.20;;;;;;933429;150;27388;-73
2022/05/06 04:30:25;;;;;;;3.80;3.50;;;10.70;78.50;;;;;;936072;149;27400;-74
2022/05/06 04:32:51;;;;;;;4.40;3.67;;;10.80;78.80;;;;;;935722;150;27483;-73
2022/05/06 04:35:18;;;;;;;4.27;3.43;;;10.90;78.80;;;;;;937577;149;27405;-73
2022/05/06 04:37:44;;;;;;;3.53;3.13;;;10.90;78.80;;;;;;937313;149;27352;-73
2022/05/06 04:40:11;;;;;;;4.23;3.57;;;11.00;78.90;;;;;;946966;149;27324;-73
2022/05/06 04:42:38;;;;;;;4.20;3.60;;;11.10;78.90;;;;;;947067;150;27516;-73
2022/05/06 04:45:04;;;;;;;5.00;3.37;;;11.10;78.90;;;;;;948326;149;27421;-73
2022/05/06 04:47:31;;;;;;;5.53;3.60;;;11.20;78.90;;;;;;948171;149;27787;-73
2022/05/06 04:49:57;;;;;;;3.80;3.23;;;11.30;79.10;;;;;;946838;149;27288;-73
2022/05/06 04:52:24;;;;;;;4.57;3.47;;;11.40;78.90;;;;;;947330;149;27307;-73
2022/05/06 04:54:51;;;;;;;3.13;2.80;;;11.40;78.80;;;;;;946716;149;27359;-73
2022/05/06 04:57:17;;;;;;;3.07;2.87;;;11.50;78.90;;;;;;946679;148;27457;-73
2022/05/06 04:59:47;;;;;;;3.50;2.87;;;11.60;78.90;;;;;;946232;149;27316;-73
2022/05/06 05:02:10;;;;;;;3.63;3.30;;;11.80;79.10;;;;;;946534;149;27285;-73
2022/05/06 05:04:37;;;;;;;6.00;3.33;;;11.90;79.50;;;;;;948484;149;27370;-73
2022/05/06 05:07:03;;;;;;;4.57;2.97;;;12.10;79.80;;;;;;946363;149;27290;-73
2022/05/06 05:09:30;;;;;;;4.37;3.20;;;12.20;79.70;;;;;;947074;149;27435;-73
2022/05/06 05:11:57;;;;;;;5.67;3.30;;;12.50;79.50;;;;;;947746;149;27339;-73
2022/05/06 05:14:23;;;;;;;3.13;2.87;;;12.70;80.00;;;;;;949213;149;27273;-74
2022/05/06 05:16:50;;;;;;;3.40;3.10;;;13.00;81.50;;;;;;947679;149;27406;-74
2022/05/06 05:19:16;;;;;;;4.27;2.80;;;13.40;82.50;;;;;;946720;149;27357;-74
2022/05/06 05:21:43;;;;;;;2.97;2.27;;;13.80;81.60;;;;;;946213;149;27428;-74
2022/05/06 05:24:10;;;;;;;3.10;2.80;;;14.30;79.70;;;;;;947143;149;27328;-73
2022/05/06 05:26:36;;;;;;;2.87;2.57;;;14.60;77.70;;;;;;948737;149;27328;-74
2022/05/06 05:29:04;;;;;;;3.60;2.80;;;14.90;76.20;;;;;;947383;149;27277;-74
2022/05/06 05:31:30;;;;;;;2.63;2.43;;;15.10;75.70;;;;;;947772;149;27395;-74
2022/05/06 05:33:56;;;;;;;2.90;2.60;;;15.30;75.40;;;;;;944130;149;27339;-73
2022/05/06 05:36:23;;;;;;;3.17;2.70;;;15.50;74.50;;;;;;946137;149;27437;-74
2022/05/06 05:38:49;;;;;;;2.87;2.53;;;15.60;73.30;;;;;;945737;149;27713;-74
2022/05/06 05:41:16;;;;;;;2.67;2.37;;;15.80;73.30;;;;;;944894;148;27312;-73
2022/05/06 05:49:12;;;;;;;2.58;2.37;;;16.70;75.80;;;;;;945673;149;27350;-74
2022/05/06 05:51:38;;;;;;;3.95;2.22;;;17.20;74.70;;;;;;946708;149;27428;-74
2022/05/06 05:54:05;;;;;;;2.40;2.20;;;17.70;75.20;;;;;;946968;148;27319;-74
2022/05/06 05:56:32;;;;;;;2.50;2.30;;;18.20;74.60;;;;;;947982;148;27305;-74
2022/05/06 05:58:58;;;;;;;2.45;2.25;;;18.80;75.00;;;;;;948724;149;27339;-74
2022/05/06 06:01:25;;;;;;;2.30;2.10;;;19.60;74.70;;;;;;946487;149;27316;-74
2022/05/06 06:03:51;;;;;;;3.02;2.15;;;20.40;73.90;;;;;;946928;149;27406;-74
2022/05/06 06:06:18;;;;;;;2.10;2.00;;;21.20;71.40;;;;;;948082;149;27305;-74
2022/05/06 06:08:45;;;;;;;12.70;2.45;;;21.90;69.30;;;;;;947777;149;27439;-74
2022/05/06 06:11:11;;;;;;;1.82;1.72;;;22.70;68.10;;;;;;946147;149;27378;-74
2022/05/06 06:13:38;;;;;;;2.05;1.90;;;23.40;66.50;;;;;;948301;149;27387;-74
2022/05/06 06:16:04;;;;;;;1.90;1.80;;;24.10;65.00;;;;;;946409;149;27441;-74
2022/05/06 06:18:31;;;;;;;7.97;1.90;;;24.80;63.50;;;;;;944678;149;27321;-74
2022/05/06 06:20:57;;;;;;;2.33;2.10;;;25.50;62.40;;;;;;947379;148;27379;-74
2022/05/06 06:23:24;;;;;;;1.80;1.70;;;26.20;60.60;;;;;;948603;149;27306;-74
2022/05/06 06:25:51;;;;;;;3.55;2.02;;;26.80;59.30;;;;;;945109;148;27395;-74
2022/05/06 06:28:17;;;;;;;2.67;1.82;;;27.40;58.40;;;;;;946670;149;27408;-74
2022/05/06 06:30:44;;;;;;;3.27;1.77;;;28.00;57.60;;;;;;947963;149;27421;-74
2022/05/06 06:33:10;;;;;;;2.65;1.90;;;28.60;56.60;;;;;;943436;149;27301;-75
2022/05/06 06:35:37;;;;;;;1.82;1.70;;;29.20;55.50;;;;;;946760;149;27337;-75
2022/05/06 06:38:04;;;;;;;2.00;1.80;;;29.80;54.30;;;;;;943440;148;27256;-74
2022/05/06 06:40:30;;;;;;;2.75;2.37;;;30.20;52.70;;;;;;964012;145;27432;-75
2022/05/06 06:43:02;;;;;;;2.12;1.95;;;30.60;51.10;;;;;;966211;147;27338;-75
2022/05/06 06:45:29;;;;;;;1.50;1.42;;;30.80;50.40;;;;;;965561;147;27366;-75
2022/05/06 06:47:56;;;;;;;1.85;1.70;;;30.90;49.70;;;;;;964709;147;27289;-75
2022/05/06 06:50:23;;;;;;;1.75;1.65;;;31.10;49.50;;;;;;965617;147;27376;-75
2022/05/06 06:52:49;;;;;;;1.67;1.57;;;31.30;48.90;;;;;;965863;147;27329;-75
2022/05/06 06:55:15;;;;;;;1.95;1.60;;;31.50;48.60;;;;;;963744;147;27346;-75
2022/05/06 06:57:42;;;;;;;1.85;1.57;;;31.80;48.30;;;;;;963708;147;27327;-75
2022/05/06 07:00:09;;;;;;;1.62;1.52;;;31.90;46.80;;;;;;965739;147;27317;-75
2022/05/06 07:02:38;;;;;;;9.98;2.60;;;32.10;46.70;;;;;;964438;145;27414;-75
2022/05/06 07:05:02;;;;;;;2.85;1.75;;;32.30;46.50;;;;;;963286;147;27445;-75
2022/05/06 07:12:59;;;;;;;1.82;1.50;;;33.10;45.80;;;;;;963983;147;27741;-75
2022/05/06 07:15:29;;;;;;;1.62;1.52;;;33.40;45.70;;;;;;964022;145;27473;-75
2022/05/06 07:17:52;;;;;;;2.37;1.67;;;33.70;45.00;;;;;;966053;147;27731;-75
2022/05/06 07:20:18;;;;;;;2.67;1.57;;;34.10;44.40;;;;;;964481;147;26243;-75
2022/05/06 07:22:45;;;;;;;1.67;1.35;;;34.40;44.00;;;;;;964049;147;26317;-75
2022/05/06 07:25:12;;;;;;;1.42;1.30;;;34.70;43.80;;;;;;965672;147;26373;-75
2022/05/06 07:27:38;;;;;;;1.30;1.20;;;35.00;42.80;;;;;;963379;147;28076;-75
2022/05/06 07:30:06;;;;;;;1.85;1.40;;;35.30;42.10;;;;;;964576;147;26231;-75
2022/05/06 07:32:31;;;;;;;1.72;1.60;;;35.50;41.70;;;;;;965314;147;27469;-75
2022/05/06 07:34:58;;;;;;;2.05;1.42;;;35.70;40.70;;;;;;965044;147;26222;-75
2022/05/06 07:37:24;;;;;;;1.92;1.32;;;36.00;40.70;;;;;;963830;147;26361;-75
2022/05/06 07:39:51;;;;;;;1.37;1.27;;;36.20;40.30;;;;;;958551;147;26334;-75
2022/05/06 07:42:18;;;;;;;2.20;1.45;;;36.50;40.00;;;;;;954194;149;26217;-75
2022/05/06 07:44:44;;;;;;;1.47;1.30;;;36.70;39.30;;;;;;955877;149;26334;-75
2022/05/06 07:47:11;;;;;;;1.42;1.32;;;36.90;38.20;;;;;;956149;149;26188;-75
2022/05/06 07:49:38;;;;;;;1.40;1.30;;;37.10;38.10;;;;;;955929;146;26256;-75
2022/05/06 07:52:04;;;;;;;1.47;1.37;;;37.20;37.70;;;;;;956488;148;26347;-74
2022/05/06 07:54:31;;;;;;;1.15;0.90;;;37.40;37.50;;;;;;955527;148;26183;-75
2022/05/06 07:56:57;;;;;;;2.52;1.40;;;37.50;37.20;;;;;;953602;148;26309;-75
2022/05/06 08:05:32;;;;;;;1.92;1.00;;;38.10;36.60;;;;;;953887;149;26338;-75
2022/05/06 08:07:57;;;;;;;1.40;1.02;;;38.30;36.20;;;;;;955750;149;26332;-75
2022/05/06 08:10:24;;;;;;;1.50;1.17;;;38.50;35.80;;;;;;955867;149;27773;-75
2022/05/06 08:12:50;;;;;;;1.25;1.17;;;38.60;35.30;;;;;;956158;149;26260;-75
2022/05/06 08:15:17;;;;;;;1.40;1.30;;;38.70;34.40;;;;;;955969;149;27321;-75
2022/05/06 08:17:44;;;;;;;1.30;1.20;;;38.80;33.90;;;;;;956258;149;26189;-75
2022/05/06 08:20:10;;;;;;;2.90;1.20;;;38.90;33.80;;;;;;954596;149;26180;-75
2022/05/06 08:22:37;;;;;;;2.15;1.20;;;38.90;33.40;;;;;;952838;147;26217;-73
2022/05/06 08:25:06;;;;;;;2.60;2.40;;;39.00;33.50;;;;;;955417;149;26353;-73
2022/05/06 08:27:35;;;;;;;1.35;1.25;;;39.10;33.60;;;;;;953978;149;26203;-73
2022/05/06 08:30:02;;;;;;;1.25;1.20;;;39.30;33.60;;;;;;955466;149;26212;-73
2022/05/06 08:32:29;;;;;;;2.58;1.32;;;39.50;33.30;;;;;;953456;149;26231;-73
2022/05/06 08:34:55;;;;;;;1.72;1.27;;;39.70;31.80;;;;;;954184;148;26268;-73
2022/05/06 08:37:22;;;;;;;1.17;0.98;;;39.90;32.10;;;;;;956848;149;26276;-73
2022/05/06 08:39:48;;;;;;;0.93;0.93;;;40.00;31.50;;;;;;954951;149;26305;-73
2022/05/06 08:42:15;;;;;;;1.37;1.00;;;40.20;31.40;;;;;;953906;148;26306;-73
2022/05/06 08:52:55;;;;;;;1.10;0.82;;;40.50;30.10;;;;;;954503;149;26365;-73
2022/05/06 08:55:22;;;;;;;0.80;0.70;;;40.60;29.90;;;;;;957843;149;26230;-73
2022/05/06 08:57:49;;;;;;;2.35;1.65;;;40.70;29.70;;;;;;954834;149;26305;-73
2022/05/06 09:00:15;;;;;;;1.22;1.00;;;40.70;29.40;;;;;;953323;149;26212;-74
2022/05/06 09:02:42;;;;;;;1.42;1.00;;;40.70;29.10;;;;;;954633;146;26288;-73
2022/05/06 09:05:17;;;;;;;1.17;0.93;;;40.70;28.90;;;;;;955858;149;26217;-73
2022/05/06 09:07:46;;;;;;;1.52;0.95;;;40.50;28.40;;;;;;953387;149;26326;-73
2022/05/06 09:10:11;;;;;;;0.75;0.75;;;40.40;28.00;;;;;;950643;149;26235;-73
2022/05/06 09:12:44;;;;;;;0.93;0.68;;;40.30;28.20;;;;;;953998;149;26352;-73
2022/05/06 09:17:55;;;;;;;0.82;0.82;;;40.00;28.10;;;;;;956241;149;26221;-73
2022/05/06 09:20:20;;;;;;;1.80;0.88;;;39.90;28.00;;;;;;956117;149;26378;-73
2022/05/06 09:22:48;;;;;;;2.17;0.70;;;39.80;28.20;;;;;;956160;149;26270;-73
2022/05/06 09:25:19;;;;;;;0.82;0.62;;;39.80;27.80;;;;;;955004;149;26240;-75
2022/05/06 09:27:46;;;;;;;1.00;0.90;;;39.80;27.50;;;;;;946395;149;27978;-75
2022/05/06 09:30:13;;;;;;;1.00;0.90;;;39.80;27.30;;;;;;951911;149;26227;-75
2022/05/06 09:32:39;;;;;;;2.25;0.82;;;39.60;25.80;;;;;;956202;149;26228;-75
2022/05/06 09:35:13;;;;;;;2.40;0.80;;;39.50;26.70;;;;;;957803;149;26212;-75
2022/05/06 09:37:38;;;;;;;2.30;0.70;;;39.20;26.20;;;;;;954168;149;26408;-75
2022/05/06 09:40:10;;;;;;;2.08;0.72;;;39.00;26.10;;;;;;956931;146;26281;-75
2022/05/06 09:42:37;;;;;;;1.15;0.70;;;38.70;26.20;;;;;;960470;148;27336;-74
2022/05/06 09:45:03;;;;;;;0.80;0.80;;;38.40;26.10;;;;;;958763;148;26329;-75
2022/05/06 09:47:30;;;;;;;1.45;0.82;;;38.00;26.30;;;;;;960898;148;26336;-75
2022/05/06 09:49:56;;;;;;;1.20;1.10;;;37.70;26.50;;;;;;960326;148;26250;-75
2022/05/06 09:52:23;;;;;;;0.95;0.75;;;37.40;26.00;;;;;;961613;148;26859;-75
2022/05/06 09:54:50;;;;;;;1.47;0.78;;;37.00;26.00;;;;;;961401;148;27299;-75
2022/05/06 09:57:18;;;;;;;2.40;0.75;;;36.60;25.90;;;;;;960054;148;26196;-75
2022/05/06 09:59:43;;;;;;;2.08;0.90;;;36.30;26.30;;;;;;960321;148;26250;-75
2022/05/06 10:02:10;;;;;;;0.72;0.70;;;35.90;26.60;;;;;;961293;148;26247;-75
2022/05/06 10:04:36;;;;;;;1.07;0.82;;;35.50;26.50;;;;;;959398;148;27530;-75
2022/05/06 10:07:03;;;;;;;1.47;1.37;;;35.20;26.80;;;;;;961063;148;27308;-75
2022/05/06 10:09:32;;;;;;;1.62;1.00;;;34.80;26.90;;;;;;958514;148;27370;-75
2022/05/06 10:11:59;;;;;;;1.22;1.02;;;34.50;26.50;;;;;;959865;148;27372;-75
2022/05/06 10:14:25;;;;;;;2.10;0.95;;;34.10;26.90;;;;;;958359;148;27339;-74
2022/05/06 10:16:52;;;;;;;1.35;0.95;;;33.70;26.80;;;;;;962550;148;27335;-75
2022/05/06 10:19:25;;;;;;;1.85;0.95;;;33.20;26.60;;;;;;960158;148;27316;-74
2022/05/06 10:21:51;;;;;;;0.75;0.75;;;32.70;26.70;;;;;;961397;148;27322;-74
2022/05/06 10:24:18;;;;;;;1.37;1.00;;;32.20;26.70;;;;;;959220;148;27300;-74
2022/05/06 10:26:50;;;;;;;1.15;0.90;;;31.70;26.90;;;;;;959862;148;27327;-75
2022/05/06 10:34:58;;;;;;;1.17;0.80;;;30.30;28.00;;;;;;960188;148;27384;-74
2022/05/06 10:37:28;;;;;;;1.05;0.93;;;29.80;28.20;;;;;;963221;148;27407;-74
2022/05/06 10:39:51;;;;;;;2.50;1.20;;;29.50;28.50;;;;;;957987;148;27418;-74
2022/05/06 10:42:18;;;;;;;1.75;1.02;;;29.20;28.90;;;;;;957439;148;27855;-74
2022/05/06 10:44:48;;;;;;;1.05;0.70;;;28.90;29.00;;;;;;958129;148;27403;-74
2022/05/06 10:47:14;;;;;;;0.78;0.68;;;28.70;28.30;;;;;;956116;147;27409;-74
2022/05/06 10:49:42;;;;;;;0.95;0.50;;;28.50;28.90;;;;;;955181;146;27421;-74
2022/05/06 10:52:16;;;;;;;0.95;0.60;;;28.30;29.00;;;;;;954822;149;27398;-74
2022/05/06 10:54:42;;;;;;;1.65;0.80;;;28.10;29.30;;;;;;951582;146;27334;-74
2022/05/06 10:57:09;;;;;;;1.20;1.10;;;27.90;29.50;;;;;;956616;148;27332;-74
2022/05/06 10:59:57;;;;;;;1.92;1.07;;;27.80;29.60;;;;;;958647;148;27423;-74
2022/05/06 11:02:23;;;;;;;0.75;0.75;;;27.70;29.70;;;;;;954444;148;27337;-74
2022/05/06 11:04:50;;;;;;;3.05;1.00;;;27.50;29.90;;;;;;940404;149;27329;-74
2022/05/06 11:07:20;;;;;;;0.80;0.80;;;27.40;29.90;;;;;;962233;145;27345;-74
2022/05/06 11:09:46;;;;;;;1.47;0.65;;;27.30;30.00;;;;;;943450;149;27393;-74
2022/05/06 11:12:34;;;;;;;1.62;0.70;;;27.20;30.00;;;;;;959036;146;27397;-74
2022/05/06 11:15:02;;;;;;;1.47;0.60;;;27.10;29.70;;;;;;959191;146;27341;-74
2022/05/06 11:17:27;;;;;;;1.20;1.02;;;26.90;30.00;;;;;;959863;146;27373;-74
2022/05/06 11:19:56;;;;;;;1.62;0.85;;;26.80;30.70;;;;;;961062;146;27307;-74
2022/05/06 11:22:24;;;;;;;0.80;0.70;;;26.60;30.20;;;;;;941622;149;27482;-74
2022/05/06 11:24:50;;;;;;;1.32;1.07;;;26.50;30.40;;;;;;963915;145;28634;-74
2022/05/06 11:27:16;;;;;;;0.80;0.80;;;26.30;30.60;;;;;;963801;145;27295;-74
2022/05/06 11:29:58;;;;;;;2.08;0.80;;;26.20;30.90;;;;;;963606;145;27388;-74
2022/05/06 11:32:24;;;;;;;1.20;0.88;;;26.10;31.00;;;;;;963129;145;27307;-74
2022/05/06 11:35:03;;;;;;;1.10;0.70;;;26.10;31.20;;;;;;963604;145;27331;-74
2022/05/06 11:37:32;;;;;;;0.65;0.65;;;26.10;31.40;;;;;;943491;148;27914;-74
2022/05/06 11:42:31;;;;;;;0.75;0.70;;;26.00;31.40;;;;;;928583;148;27460;-74
2022/05/06 11:47:42;;;;;;;0.80;0.80;;;26.00;31.40;;;;;;945394;147;27371;-74
2022/05/06 11:50:09;;;;;;;1.10;1.00;;;26.00;31.40;;;;;;949802;147;27443;-74
2022/05/06 11:52:35;;;;;;;2.22;1.02;;;25.90;31.30;;;;;;925676;150;27673;-74
2022/05/06 11:55:02;;;;;;;1.22;0.88;;;25.90;31.50;;;;;;924588;150;27298;-74
2022/05/06 11:57:28;;;;;;;0.72;0.57;;;25.80;31.60;;;;;;944027;147;27356;-74
2022/05/06 11:59:55;;;;;;;1.00;0.90;;;25.70;31.70;;;;;;927728;150;28432;-74
2022/05/06 12:02:22;;;;;;;1.00;0.70;;;25.70;31.90;;;;;;944725;147;27318;-74
2022/05/06 12:04:48;;;;;;;1.10;1.00;;;25.60;31.90;;;;;;945755;147;27362;-74
2022/05/06 12:07:15;;;;;;;1.57;0.95;;;25.50;32.10;;;;;;945401;147;27283;-74
2022/05/06 12:09:44;;;;;;;1.02;0.90;;;25.50;32.40;;;;;;948264;147;27349;-74
2022/05/06 12:12:10;;;;;;;1.07;0.88;;;25.40;32.00;;;;;;929084;150;27288;-75
2022/05/06 12:14:40;;;;;;;0.75;0.62;;;25.40;32.10;;;;;;929365;150;27328;-74
2022/05/06 12:17:15;;;;;;;0.85;0.85;;;25.40;32.00;;;;;;948181;147;27407;-74
2022/05/06 12:19:45;;;;;;;1.10;1.00;;;25.40;32.30;;;;;;945896;147;27370;-74
2022/05/06 12:22:23;;;;;;;0.88;0.80;;;25.40;32.60;;;;;;945963;147;27422;-74
2022/05/06 12:24:55;;;;;;;0.72;0.68;;;25.30;32.60;;;;;;946603;147;27314;-74
2022/05/06 12:27:31;;;;;;;1.45;0.82;;;25.30;32.60;;;;;;946846;146;27273;-74
2022/05/06 12:29:58;;;;;;;1.17;0.80;;;25.30;32.60;;;;;;947098;146;27309;-74
2022/05/06 12:32:24;;;;;;;4.42;1.07;;;25.30;32.60;;;;;;945618;146;27413;-74
2022/05/06 12:35:06;;;;;;;1.30;0.90;;;25.30;32.50;;;;;;947039;146;28145;-74
2022/05/06 12:37:32;;;;;;;1.12;0.95;;;25.20;32.50;;;;;;946728;146;27328;-74
2022/05/06 12:39:59;;;;;;;2.85;0.72;;;25.20;32.80;;;;;;932492;149;27275;-73
2022/05/06 12:42:25;;;;;;;1.10;1.00;;;25.10;32.80;;;;;;942008;149;27350;-73
2022/05/06 12:44:52;;;;;;;1.37;1.27;;;25.10;33.00;;;;;;943308;149;27368;-74
2022/05/06 12:50:03;;;;;;;1.22;0.68;;;25.10;33.00;;;;;;942744;149;27398;-74
2022/05/06 12:52:33;;;;;;;1.40;0.93;;;25.00;33.10;;;;;;942001;149;27419;-74
2022/05/06 12:54:57;;;;;;;2.52;0.95;;;25.00;33.40;;;;;;941153;149;27419;-74
2022/05/06 12:57:26;;;;;;;0.88;0.85;;;25.00;33.40;;;;;;942603;149;27374;-74
2022/05/06 12:59:50;;;;;;;1.42;1.10;;;25.00;33.40;;;;;;940816;149;27483;-74
2022/05/06 13:02:16;;;;;;;0.80;0.70;;;25.10;33.50;;;;;;942022;149;28093;-74
2022/05/06 13:04:43;;;;;;;0.93;0.90;;;25.10;33.50;;;;;;943501;149;27481;-74
2022/05/06 13:07:09;;;;;;;1.17;0.90;;;25.10;33.40;;;;;;942322;149;27307;-74
2022/05/06 13:09:36;;;;;;;1.62;0.80;;;25.20;33.20;;;;;;942705;149;27395;-74
2022/05/06 13:12:03;;;;;;;0.93;0.90;;;25.20;33.40;;;;;;941514;149;27926;-74
2022/05/06 13:14:29;;;;;;;1.67;1.20;;;25.20;33.40;;;;;;941423;149;27354;-74
2022/05/06 13:16:56;;;;;;;0.88;0.88;;;25.20;33.50;;;;;;940891;149;27328;-74
2022/05/06 13:19:22;;;;;;;0.80;0.80;;;25.20;33.50;;;;;;942796;149;27295;-74
2022/05/06 13:21:49;;;;;;;1.67;1.05;;;25.30;33.50;;;;;;943595;149;27429;-74
2022/05/06 13:24:16;;;;;;;1.00;1.00;;;25.30;33.60;;;;;;944024;149;27358;-75
2022/05/06 13:26:42;;;;;;;1.30;1.20;;;25.30;33.80;;;;;;941782;149;27380;-74
2022/05/06 13:29:11;;;;;;;1.15;0.98;;;25.30;33.40;;;;;;943833;149;27343;-74
2022/05/06 13:31:35;;;;;;;1.20;0.88;;;25.30;33.30;;;;;;942903;149;27356;-73
2022/05/06 13:34:02;;;;;;;1.75;0.80;;;25.30;33.20;;;;;;942238;149;27365;-74
2022/05/06 13:36:29;;;;;;;1.65;1.17;;;25.20;33.30;;;;;;941948;149;27349;-74
2022/05/06 13:38:55;;;;;;;1.82;0.90;;;25.30;33.40;;;;;;942804;149;27962;-74
2022/05/06 13:41:23;;;;;;;0.93;0.93;;;25.20;33.20;;;;;;940951;149;27768;-74
2022/05/06 13:43:48;;;;;;;1.52;1.00;;;25.20;33.20;;;;;;941010;149;27398;-74